createdAt,value
2022-12-09T00:00:30.091Z,15.83
2022-12-09T00:03:23.505Z,17.27
2022-12-09T00:05:49.988Z,19.37
2022-12-09T00:08:16.560Z,28.37
2022-12-09T00:10:44.365Z,45.87
2022-12-09T00:13:10.840Z,43.23
2022-12-09T00:15:41.914Z,20.40
2022-12-09T00:18:09.479Z,23.53
2022-12-09T00:20:35.807Z,17.30
2022-12-09T00:23:02.327Z,21.10
2022-12-09T00:25:28.626Z,24.77
2022-12-09T00:27:55.135Z,24.27
2022-12-09T00:30:21.286Z,22.77
2022-12-09T00:32:49.310Z,17.63
2022-12-09T00:35:15.592Z,17.03
2022-12-09T00:37:42.223Z,17.07
2022-12-09T00:40:09.366Z,15.40
2022-12-09T00:42:36.703Z,16.67
2022-12-09T00:45:03.245Z,14.37
2022-12-09T00:47:29.828Z,22.00
2022-12-09T00:49:56.327Z,20.23
2022-12-09T00:52:23.163Z,18.67
2022-12-09T00:54:49.637Z,15.27
2022-12-09T00:57:16.211Z,14.00
2022-12-09T00:59:42.384Z,15.10
2022-12-09T01:02:09.019Z,27.80
2022-12-09T01:04:36.085Z,44.90
2022-12-09T01:07:02.955Z,21.93
2022-12-09T01:09:29.256Z,17.47
2022-12-09T01:11:55.802Z,16.20
2022-12-09T01:14:21.973Z,15.03
2022-12-09T01:16:48.732Z,14.60
2022-12-09T01:19:16.124Z,14.73
2022-12-09T01:21:42.706Z,11.90
2022-12-09T01:24:10.369Z,11.67
2022-12-09T01:26:37.644Z,14.30
2022-12-09T01:29:04.292Z,12.03
2022-12-09T01:31:30.843Z,13.37
2022-12-09T01:33:57.397Z,14.27
2022-12-09T01:36:28.647Z,13.77
2022-12-09T01:38:57.672Z,14.97
2022-12-09T01:41:25.051Z,12.60
2022-12-09T01:44:11.775Z,13.17
2022-12-09T01:46:38.351Z,13.80
2022-12-09T01:49:07.643Z,16.87
2022-12-09T01:51:36.036Z,13.90
2022-12-09T01:54:03.100Z,13.97
2022-12-09T01:56:33.558Z,12.97
2022-12-09T01:59:08.477Z,12.77
2022-12-09T02:01:35.798Z,12.23
2022-12-09T02:04:02.520Z,13.77
2022-12-09T02:06:29.413Z,12.37
2022-12-09T02:08:57.324Z,11.93
2022-12-09T02:11:43.141Z,16.83
2022-12-09T02:14:39.641Z,14.60
2022-12-09T02:17:30.700Z,13.10
2022-12-09T02:20:03.085Z,13.00
2022-12-09T02:22:44.634Z,12.70
2022-12-09T02:25:32.120Z,14.73
2022-12-09T02:28:24.130Z,16.93
2022-12-09T02:31:04.677Z,17.77
2022-12-09T02:33:44.376Z,15.73
2022-12-09T02:36:17.571Z,17.03
2022-12-09T02:38:48.875Z,17.37
2022-12-09T02:41:23.419Z,15.63
2022-12-09T02:43:56.010Z,17.67
2022-12-09T02:46:28.660Z,16.30
2022-12-09T02:48:58.494Z,19.03
2022-12-09T02:51:28.624Z,17.83
2022-12-09T02:54:02.675Z,16.97
2022-12-09T02:56:30.659Z,15.67
2022-12-09T02:58:57.524Z,15.63
2022-12-09T03:01:32.353Z,15.77
2022-12-09T03:03:59.668Z,16.47
2022-12-09T03:06:33.883Z,14.60
2022-12-09T03:09:09.558Z,15.63
2022-12-09T03:11:37.637Z,19.90
2022-12-09T03:14:09.195Z,16.13
2022-12-09T03:16:41.742Z,13.77
2022-12-09T03:19:22.122Z,16.63
2022-12-09T03:21:52.961Z,17.27
2022-12-09T03:24:30.263Z,16.57
2022-12-09T03:26:59.874Z,15.17
2022-12-09T03:29:28.605Z,17.63
2022-12-09T03:31:57.409Z,16.23
2022-12-09T03:34:32.306Z,17.77
2022-12-09T03:37:01.336Z,16.30
2022-12-09T03:39:33.690Z,18.47
2022-12-09T03:42:05.041Z,17.33
2022-12-09T03:44:43.381Z,18.80
2022-12-09T03:47:10.613Z,18.90
2022-12-09T03:49:38.982Z,20.00
2022-12-09T03:52:08.098Z,16.60
2022-12-09T03:54:45.361Z,17.87
2022-12-09T03:57:18.712Z,17.40
2022-12-09T03:59:56.655Z,19.47
2022-12-09T04:02:23.630Z,19.30
2022-12-09T04:04:51.175Z,19.33
2022-12-09T04:07:18.102Z,19.93
2022-12-09T04:09:46.376Z,19.67
2022-12-09T04:12:12.611Z,19.30
2022-12-09T04:14:39.165Z,20.30
2022-12-09T04:17:05.671Z,17.83
2022-12-09T04:19:32.765Z,21.33
2022-12-09T04:21:59.586Z,19.43
2022-12-09T04:24:26.019Z,20.80
2022-12-09T04:26:52.175Z,23.23
2022-12-09T04:29:18.954Z,27.70
2022-12-09T04:31:45.575Z,25.50
2022-12-09T04:34:12.769Z,26.17
2022-12-09T04:36:39.477Z,21.93
2022-12-09T04:39:06.831Z,20.90
2022-12-09T04:41:33.525Z,28.13
2022-12-09T04:44:00.716Z,28.33
2022-12-09T04:46:27.112Z,26.27
2022-12-09T04:48:53.610Z,30.43
2022-12-09T04:51:20.192Z,22.83
2022-12-09T04:53:47.061Z,25.00
2022-12-09T04:56:20.545Z,26.00
2022-12-09T04:58:48.688Z,20.53
2022-12-09T05:01:24.773Z,19.93
2022-12-09T05:03:54.973Z,20.77
2022-12-09T05:06:22.117Z,19.33
2022-12-09T05:08:49.161Z,22.40
2022-12-09T05:11:17.247Z,26.43
2022-12-09T05:13:44.801Z,34.30
2022-12-09T05:16:16.375Z,31.00
2022-12-09T05:18:44.815Z,29.07
2022-12-09T05:21:14.417Z,26.20
2022-12-09T05:23:42.297Z,24.97
2022-12-09T05:26:12.015Z,22.63
2022-12-09T05:28:38.950Z,29.03
2022-12-09T05:31:09.280Z,33.70
2022-12-09T05:33:36.977Z,24.60
2022-12-09T05:36:03.748Z,22.43
2022-12-09T05:38:30.620Z,27.83
2022-12-09T05:41:00.614Z,28.93
2022-12-09T05:43:27.677Z,30.87
2022-12-09T05:45:55.033Z,26.80
2022-12-09T05:48:22.686Z,23.53
2022-12-09T05:51:08.059Z,22.87
2022-12-09T05:53:34.817Z,30.50
2022-12-09T05:56:01.921Z,26.20
2022-12-09T05:58:29.577Z,27.50
2022-12-09T06:01:02.496Z,29.00
2022-12-09T06:03:29.750Z,29.03
2022-12-09T06:05:56.467Z,32.67
2022-12-09T06:08:23.891Z,30.47
2022-12-09T06:10:50.960Z,33.17
2022-12-09T06:13:17.709Z,29.43
2022-12-09T06:15:44.067Z,33.73
2022-12-09T06:18:11.393Z,29.40
2022-12-09T06:20:41.116Z,33.07
2022-12-09T06:23:07.913Z,31.53
2022-12-09T06:25:34.965Z,45.07
2022-12-09T06:28:02.267Z,42.47
2022-12-09T06:30:29.087Z,40.87
2022-12-09T06:32:55.821Z,33.80
2022-12-09T06:35:22.239Z,30.70
2022-12-09T06:37:52.267Z,36.70
2022-12-09T06:40:21.980Z,30.80
2022-12-09T06:42:49.976Z,36.27
2022-12-09T06:45:19.891Z,30.40
2022-12-09T06:47:47.550Z,31.63
2022-12-09T06:50:14.743Z,29.03
2022-12-09T06:52:41.615Z,29.70
2022-12-09T06:55:10.309Z,28.67
2022-12-09T06:57:38.206Z,31.60
2022-12-09T07:00:05.619Z,33.37
2022-12-09T07:02:36.056Z,29.97
2022-12-09T07:05:05.743Z,29.20
2022-12-09T07:07:33.195Z,23.80
2022-12-09T07:10:07.960Z,27.27
2022-12-09T07:12:34.785Z,25.43
2022-12-09T07:15:01.483Z,31.23
2022-12-09T07:17:28.779Z,31.37
2022-12-09T07:20:00.143Z,30.07
2022-12-09T07:22:33.047Z,28.90
2022-12-09T07:24:59.710Z,23.23
2022-12-09T07:27:26.834Z,25.50
2022-12-09T07:30:18.251Z,24.47
2022-12-09T07:32:45.174Z,24.80
2022-12-09T07:35:12.270Z,24.73
2022-12-09T07:37:39.285Z,21.77
2022-12-09T07:40:06.740Z,21.83
2022-12-09T07:42:35.399Z,25.33
2022-12-09T07:45:05.159Z,24.97
2022-12-09T07:47:33.375Z,23.00
2022-12-09T07:50:04.695Z,24.90
2022-12-09T07:52:33.768Z,23.77
2022-12-09T07:55:00.887Z,25.70
2022-12-09T07:57:28.504Z,30.03
2022-12-09T07:59:56.305Z,31.50
2022-12-09T08:02:23.315Z,32.27
2022-12-09T08:04:50.234Z,36.23
2022-12-09T08:07:17.541Z,32.20
2022-12-09T08:09:44.247Z,34.23
2022-12-09T08:12:12.688Z,37.90
2022-12-09T08:14:39.764Z,56.00
2022-12-09T08:17:07.252Z,60.00
2022-12-09T08:19:33.954Z,60.43
2022-12-09T08:22:01.027Z,41.43
2022-12-09T08:24:27.598Z,45.10
2022-12-09T08:26:54.439Z,39.33
2022-12-09T08:29:21.533Z,45.97
2022-12-09T08:31:49.009Z,41.73
2022-12-09T08:34:16.803Z,33.00
2022-12-09T08:36:44.371Z,33.53
2022-12-09T08:39:13.082Z,34.70
2022-12-09T08:41:40.712Z,40.20
2022-12-09T08:44:16.559Z,40.07
2022-12-09T08:46:47.143Z,34.03
2022-12-09T08:49:17.826Z,33.37
2022-12-09T08:51:46.199Z,32.87
2022-12-09T08:54:12.832Z,36.57
2022-12-09T08:56:41.496Z,31.57
2022-12-09T08:59:08.348Z,35.60
2022-12-09T09:01:36.015Z,29.50
2022-12-09T09:04:09.615Z,28.87
2022-12-09T09:06:41.482Z,35.13
2022-12-09T09:09:10.062Z,61.13
2022-12-09T09:11:37.741Z,68.97
2022-12-09T09:14:06.198Z,31.30
2022-12-09T09:16:34.568Z,35.30
2022-12-09T09:19:02.992Z,33.10
2022-12-09T09:21:30.005Z,33.70
2022-12-09T09:23:56.565Z,36.90
2022-12-09T09:26:25.442Z,32.60
2022-12-09T09:28:55.847Z,37.00
2022-12-09T09:31:24.092Z,41.10
2022-12-09T09:33:51.956Z,29.83
2022-12-09T09:36:22.616Z,33.23
2022-12-09T09:38:51.561Z,47.93
2022-12-09T09:41:38.578Z,49.80
2022-12-09T09:44:27.350Z,114.47
2022-12-09T09:46:56.407Z,240.10
2022-12-09T09:49:38.420Z,64.90
2022-12-09T09:52:15.179Z,234.27
2022-12-09T09:54:41.653Z,133.20
2022-12-09T09:57:11.196Z,91.87
2022-12-09T09:59:41.253Z,37.80
2022-12-09T10:02:11.413Z,30.00
2022-12-09T10:04:41.442Z,33.83
2022-12-09T10:07:12.393Z,33.90
2022-12-09T10:09:53.154Z,38.23
2022-12-09T10:12:20.438Z,39.07
2022-12-09T10:14:54.425Z,38.37
2022-12-09T10:17:39.216Z,34.23
2022-12-09T10:20:24.338Z,39.53
2022-12-09T10:22:58.255Z,31.43
2022-12-09T10:25:31.066Z,33.67
2022-12-09T10:28:27.759Z,31.60
2022-12-09T10:30:55.623Z,28.60
2022-12-09T10:33:28.649Z,36.60
2022-12-09T10:35:55.640Z,32.87
2022-12-09T10:38:24.349Z,35.37
2022-12-09T10:41:07.320Z,43.37
2022-12-09T10:43:43.389Z,51.13
2022-12-09T10:46:21.010Z,28.77
2022-12-09T10:48:49.069Z,32.20
2022-12-09T10:51:20.546Z,33.13
2022-12-09T10:53:51.676Z,36.77
2022-12-09T10:56:26.058Z,32.27
2022-12-09T10:59:15.216Z,32.27
2022-12-09T11:01:52.208Z,25.90
2022-12-09T11:04:40.542Z,24.97
2022-12-09T11:07:06.949Z,66.80
2022-12-09T11:09:36.744Z,60.87
2022-12-09T11:12:06.615Z,47.03
2022-12-09T11:14:47.910Z,23.10
2022-12-09T11:17:24.263Z,116.93
2022-12-09T11:20:09.816Z,52.70
2022-12-09T11:22:41.848Z,41.77
2022-12-09T11:25:12.079Z,116.07
2022-12-09T11:27:42.758Z,40.83
2022-12-09T11:30:16.028Z,101.13
2022-12-09T11:33:05.233Z,29.83
2022-12-09T11:35:55.638Z,31.10
2022-12-09T11:38:35.688Z,69.93
2022-12-09T11:41:11.261Z,72.77
2022-12-09T11:43:49.446Z,78.73
2022-12-09T11:46:21.690Z,69.00
2022-12-09T11:49:01.260Z,66.57
2022-12-09T11:51:35.270Z,19.50
2022-12-09T11:54:10.569Z,57.03
2022-12-09T11:56:40.043Z,52.63
2022-12-09T11:59:13.120Z,33.00
2022-12-09T12:02:05.324Z,31.70
2022-12-09T12:04:53.725Z,24.80
2022-12-09T12:07:40.807Z,23.97
2022-12-09T12:10:34.700Z,139.73
2022-12-09T12:13:19.321Z,63.77
2022-12-09T12:15:58.015Z,72.53
2022-12-09T12:18:28.820Z,56.53
2022-12-09T12:21:10.158Z,30.57
2022-12-09T12:23:48.855Z,84.10
2022-12-09T12:26:15.008Z,51.33
2022-12-09T12:28:57.222Z,76.47
2022-12-09T12:31:50.019Z,52.73
2022-12-09T12:34:44.103Z,47.57
2022-12-09T12:37:34.615Z,154.87
2022-12-09T12:40:27.191Z,73.50
2022-12-09T12:43:24.767Z,48.80
2022-12-09T12:46:17.133Z,41.17
2022-12-09T12:49:08.089Z,78.23
2022-12-09T12:51:49.723Z,48.30
2022-12-09T12:54:25.999Z,29.53
2022-12-09T12:57:10.711Z,54.17
2022-12-09T13:00:26.273Z,32.10
2022-12-09T13:03:01.928Z,72.60
2022-12-09T13:05:36.638Z,33.40
2022-12-09T13:08:30.104Z,31.13
2022-12-09T13:11:01.284Z,45.93
2022-12-09T13:13:27.798Z,48.40
2022-12-09T13:15:59.837Z,31.63
2022-12-09T13:18:39.249Z,48.07
2022-12-09T13:21:06.770Z,41.90
2022-12-09T13:23:48.244Z,38.20
2022-12-09T13:26:41.519Z,61.40
2022-12-09T13:29:35.616Z,47.90
2022-12-09T13:32:15.209Z,43.07
2022-12-09T13:34:49.292Z,51.20
2022-12-09T13:37:30.494Z,39.33
2022-12-09T13:39:58.069Z,57.10
2022-12-09T13:42:46.771Z,68.03
2022-12-09T13:45:22.889Z,45.23
2022-12-09T13:47:52.565Z,45.80
2022-12-09T13:50:39.075Z,51.50
2022-12-09T13:53:14.492Z,53.13
2022-12-09T13:55:58.357Z,52.27
2022-12-09T13:58:55.223Z,37.27
2022-12-09T14:01:42.995Z,40.97
2022-12-09T14:04:34.186Z,47.03
2022-12-09T14:07:10.084Z,40.77
2022-12-09T14:09:49.574Z,45.97
2022-12-09T14:12:24.984Z,40.07
2022-12-09T14:15:10.031Z,44.93
2022-12-09T14:17:36.566Z,58.23
2022-12-09T14:20:38.758Z,39.87
2022-12-09T14:23:09.080Z,50.10
2022-12-09T14:25:35.540Z,45.33
2022-12-09T14:28:11.693Z,42.27
2022-12-09T14:30:53.635Z,49.40
2022-12-09T14:33:24.125Z,42.10
2022-12-09T14:35:56.323Z,41.17
2022-12-09T14:38:29.230Z,49.63
2022-12-09T14:41:24.691Z,88.50
2022-12-09T14:44:18.960Z,63.13
2022-12-09T14:46:49.322Z,39.27
2022-12-09T14:49:28.917Z,46.77
2022-12-09T14:51:58.202Z,72.93
2022-12-09T14:54:45.099Z,64.50
2022-12-09T14:57:33.361Z,55.43
2022-12-09T14:59:59.968Z,49.13
2022-12-09T15:02:31.708Z,53.27
2022-12-09T15:05:01.301Z,49.67
2022-12-09T15:07:31.867Z,43.13
2022-12-09T15:10:01.337Z,51.73
2022-12-09T15:12:39.885Z,48.40
2022-12-09T15:15:09.403Z,75.20
2022-12-09T15:17:51.697Z,48.93
2022-12-09T15:20:29.397Z,46.10
2022-12-09T15:23:19.593Z,49.13
2022-12-09T15:25:52.519Z,48.70
2022-12-09T15:28:28.203Z,45.60
2022-12-09T15:30:56.694Z,48.60
2022-12-09T15:33:23.764Z,57.93
2022-12-09T15:35:53.319Z,48.17
2022-12-09T15:38:20.305Z,45.77
2022-12-09T15:41:06.096Z,43.80
2022-12-09T15:43:36.174Z,39.37
2022-12-09T15:46:03.582Z,43.00
2022-12-09T15:48:36.599Z,38.20
2022-12-09T15:51:15.697Z,64.03
2022-12-09T15:53:55.833Z,62.13
2022-12-09T15:56:34.480Z,44.10
2022-12-09T15:59:15.263Z,57.73
2022-12-09T16:01:49.431Z,33.97
2022-12-09T16:04:19.543Z,36.73
2022-12-09T16:06:47.422Z,37.37
2022-12-09T16:09:17.167Z,31.73
2022-12-09T16:11:47.846Z,32.53
2022-12-09T16:14:16.937Z,34.63
2022-12-09T16:17:00.790Z,29.67
2022-12-09T16:19:30.782Z,30.77
2022-12-09T16:21:59.563Z,29.80
2022-12-09T16:24:44.095Z,26.70
2022-12-09T16:27:22.400Z,28.43
2022-12-09T16:29:52.586Z,25.80
2022-12-09T16:32:21.852Z,36.60
2022-12-09T16:34:54.915Z,58.80
2022-12-09T16:37:28.935Z,33.37
2022-12-09T16:39:57.989Z,41.30
2022-12-09T16:42:36.483Z,268.13
2022-12-09T16:46:04.910Z,272.33
2022-12-09T16:48:32.330Z,74.53
2022-12-09T16:51:16.873Z,51.63
2022-12-09T16:53:46.171Z,38.33
2022-12-09T16:56:24.783Z,46.07
2022-12-09T16:58:52.773Z,35.90
2022-12-09T17:01:34.730Z,38.93
2022-12-09T17:04:13.146Z,30.73
2022-12-09T17:06:40.088Z,34.37
2022-12-09T17:09:06.672Z,40.23
2022-12-09T17:11:33.982Z,43.27
2022-12-09T17:14:00.621Z,38.10
2022-12-09T17:16:27.757Z,47.93
2022-12-09T17:18:54.455Z,38.03
2022-12-09T17:21:20.954Z,41.17
2022-12-09T17:23:47.854Z,35.37
2022-12-09T17:26:17.698Z,33.77
2022-12-09T17:28:45.427Z,42.87
2022-12-09T17:31:18.150Z,53.37
2022-12-09T17:33:45.155Z,37.77
2022-12-09T17:36:12.714Z,52.07
2022-12-09T17:38:39.778Z,40.27
2022-12-09T17:41:08.891Z,61.73
2022-12-09T17:43:36.052Z,52.20
2022-12-09T17:46:04.612Z,63.77
2022-12-09T17:48:33.117Z,46.13
2022-12-09T17:51:07.575Z,40.83
2022-12-09T17:53:36.359Z,43.23
2022-12-09T17:56:08.620Z,64.93
2022-12-09T17:58:35.369Z,58.97
2022-12-09T18:01:01.658Z,79.33
2022-12-09T18:03:54.192Z,85.50
2022-12-09T18:06:15.727Z,61.43
2022-12-09T18:08:42.489Z,43.30
2022-12-09T18:11:10.261Z,44.53
2022-12-09T18:13:37.476Z,102.37
2022-12-09T18:16:09.589Z,84.43
2022-12-09T18:18:37.674Z,75.87
2022-12-09T18:21:04.215Z,68.37
2022-12-09T18:23:31.170Z,65.20
2022-12-09T18:25:58.390Z,76.57
2022-12-09T18:28:28.693Z,49.33
2022-12-09T18:30:55.076Z,83.43
2022-12-09T18:33:23.146Z,70.60
2022-12-09T18:35:50.076Z,57.37
2022-12-09T18:38:17.247Z,73.63
2022-12-09T18:41:02.881Z,59.93
2022-12-09T18:43:39.399Z,55.70
2022-12-09T18:46:13.249Z,59.53
2022-12-09T18:48:40.150Z,69.90
2022-12-09T18:51:16.964Z,59.13
2022-12-09T18:53:44.322Z,80.50
2022-12-09T18:56:11.299Z,62.03
2022-12-09T18:59:04.836Z,68.43
2022-12-09T19:01:28.976Z,62.00
2022-12-09T19:03:58.339Z,60.27
2022-12-09T19:06:26.337Z,78.50
2022-12-09T19:08:56.594Z,72.10
2022-12-09T19:11:28.166Z,70.93
2022-12-09T19:13:56.074Z,92.67
2022-12-09T19:16:24.034Z,61.03
2022-12-09T19:18:55.459Z,69.10
2022-12-09T19:21:23.237Z,61.53
2022-12-09T19:23:50.491Z,71.10
2022-12-09T19:26:17.972Z,51.20
2022-12-09T19:28:50.014Z,52.50
2022-12-09T19:31:17.933Z,50.07
2022-12-09T19:33:44.679Z,63.27
2022-12-09T19:36:11.635Z,64.70
2022-12-09T19:38:39.106Z,102.97
2022-12-09T19:41:06.459Z,54.23
2022-12-09T19:43:33.825Z,49.40
2022-12-09T19:46:08.368Z,59.67
2022-12-09T19:48:36.776Z,47.93
2022-12-09T19:51:10.331Z,67.67
2022-12-09T19:53:37.946Z,77.57
2022-12-09T19:56:07.918Z,44.30
2022-12-09T19:58:36.762Z,49.40
2022-12-09T20:01:15.445Z,48.27
2022-12-09T20:03:45.249Z,38.83
2022-12-09T20:06:13.780Z,43.77
2022-12-09T20:08:40.488Z,47.60
2022-12-09T20:11:11.807Z,40.83
2022-12-09T20:13:38.285Z,43.90
2022-12-09T20:16:06.649Z,44.10
2022-12-09T20:18:34.363Z,42.10
2022-12-09T20:21:05.803Z,42.53
2022-12-09T20:23:34.680Z,43.47
2022-12-09T20:26:04.855Z,38.27
2022-12-09T20:28:32.276Z,44.67
2022-12-09T20:31:07.238Z,43.07
2022-12-09T20:33:34.155Z,41.77
2022-12-09T20:36:15.256Z,40.93
2022-12-09T20:38:43.015Z,61.40
2022-12-09T20:41:13.011Z,42.50
2022-12-09T20:43:41.830Z,44.77
2022-12-09T20:46:11.934Z,53.00
2022-12-09T20:48:39.309Z,79.50
2022-12-09T20:51:23.618Z,80.60
2022-12-09T20:53:51.791Z,47.30
2022-12-09T20:56:19.843Z,46.60
2022-12-09T20:58:47.949Z,51.93
2022-12-09T21:01:23.876Z,49.40
2022-12-09T21:03:52.480Z,61.20
2022-12-09T21:06:21.099Z,119.40
2022-12-09T21:08:48.248Z,79.43
2022-12-09T21:11:22.729Z,61.07
2022-12-09T21:13:57.975Z,58.83
2022-12-09T21:16:27.170Z,63.47
2022-12-09T21:18:56.920Z,70.63
2022-12-09T21:21:25.571Z,65.37
2022-12-09T21:23:53.942Z,68.33
2022-12-09T21:26:23.128Z,59.33
2022-12-09T21:28:50.576Z,64.40
2022-12-09T21:31:23.213Z,59.73
2022-12-09T21:33:51.791Z,59.40
2022-12-09T21:36:21.774Z,64.13
2022-12-09T21:38:48.451Z,51.73
2022-12-09T21:41:20.368Z,76.07
2022-12-09T21:43:47.429Z,65.30
2022-12-09T21:46:19.014Z,71.50
2022-12-09T21:48:51.816Z,78.80
2022-12-09T21:51:19.423Z,60.90
2022-12-09T21:53:47.098Z,55.87
2022-12-09T21:56:15.137Z,61.80
2022-12-09T21:58:43.636Z,59.03
2022-12-09T22:01:13.814Z,80.47
2022-12-09T22:03:41.273Z,54.83
2022-12-09T22:06:07.879Z,64.03
2022-12-09T22:08:35.709Z,61.50
2022-12-09T22:11:11.530Z,81.53
2022-12-09T22:13:39.705Z,67.13
2022-12-09T22:16:11.562Z,64.47
2022-12-09T22:18:38.577Z,130.03
2022-12-09T22:21:27.331Z,77.30
2022-12-09T22:23:57.513Z,71.43
2022-12-09T22:26:24.699Z,73.07
2022-12-09T22:28:51.585Z,68.07
2022-12-09T22:31:22.594Z,68.40
2022-12-09T22:33:55.537Z,70.07
2022-12-09T22:36:22.574Z,71.97
2022-12-09T22:38:49.610Z,77.50
2022-12-09T22:41:19.283Z,70.50
2022-12-09T22:43:48.232Z,69.07
2022-12-09T22:46:17.273Z,63.47
2022-12-09T22:48:44.555Z,66.37
2022-12-09T22:51:14.108Z,72.17
2022-12-09T22:53:41.007Z,65.83
2022-12-09T22:56:08.228Z,64.47
2022-12-09T22:58:35.213Z,73.10
2022-12-09T23:01:01.687Z,65.13
2022-12-09T23:03:28.196Z,66.03
2022-12-09T23:05:54.923Z,69.30
2022-12-09T23:08:21.775Z,69.37
2022-12-09T23:10:48.021Z,63.57
2022-12-09T23:13:14.444Z,64.43
2022-12-09T23:15:40.705Z,58.40
2022-12-09T23:18:07.487Z,55.03
2022-12-09T23:20:34.031Z,71.03
2022-12-09T23:23:00.535Z,68.90
2022-12-09T23:25:26.674Z,58.87
2022-12-09T23:27:53.084Z,73.17
2022-12-09T23:30:19.281Z,73.30
2022-12-09T23:32:45.667Z,74.23
2022-12-09T23:35:11.900Z,76.93
2022-12-09T23:37:38.291Z,70.63
2022-12-09T23:40:05.274Z,68.17
2022-12-09T23:42:31.796Z,70.37
2022-12-09T23:44:58.331Z,70.63
2022-12-09T23:47:24.801Z,66.93
2022-12-09T23:49:50.886Z,68.33
2022-12-09T23:52:17.356Z,70.83
2022-12-09T23:54:43.488Z,70.30
2022-12-09T23:57:09.882Z,63.87
2022-12-09T23:59:36.045Z,71.70
